Terminal Aerodrome Forecast
Issued by NWS Charleston, WV

Current Version | Previous Version | Graphics & Text | Print | Product List | Glossary On
Versions: 1 2 3 4 5 6 7 8 9 10 11 12 13 14 15 16 17 18 19 20 21 22 23 24 25 26 27
000
FTUS41 KRLX 211732
TAFEKN
TAF
KEKN 211732Z 2118/2218 27011G22KT 3SM TSRA BKN030CB
     FM211930 27006KT P6SM VCTS BKN040CB
     FM212100 28006KT P6SM -SHRA BKN070
     FM220200 VRB03KT 3SM BR FEW001 BKN100
     FM220400 00000KT 2SM BR SCT001 BKN090
     FM220700 00000KT 1/4SM FG BKN001
     FM221200 00000KT 2SM BR SCT001
     FM221300 VRB03KT 3SM BR BKN045
     FM221500 22005KT P6SM BKN060
     FM221700 25006KT P6SM SHRA VCTS BKN070CB=

USA.gov is the U.S. government's official web portal to all federal, state and local government web resources and services.